Time;durP1;ratioP1;P1;durP2;ratioP2;P2;SDS_P1;SDS_P2;PMS_P1;PMS_P2;Temp;Humidity;BMP_temperature;BMP_pressure;BME280_temperature;BME280_humidity;BME280_pressure;Samples;Min_cycle;Max_cycle;Signal;HPM_P1;HPM_P2
2021/07/09 00:01:40;;;;;;;6.25;3.92;;;18.10;99.90;;;;;;5079881;28;20058;-67
2021/07/09 00:04:07;;;;;;;9.63;4.20;;;18.00;99.90;;;;;;5083382;28;20058;-66
2021/07/09 00:06:34;;;;;;;10.88;5.22;;;17.90;99.90;;;;;;5082889;28;20052;-66
2021/07/09 00:09:01;;;;;;;9.20;4.70;;;17.80;99.90;;;;;;5083126;28;20496;-66
2021/07/09 00:11:28;;;;;;;8.32;4.03;;;17.80;99.90;;;;;;5081194;28;20438;-66
2021/07/09 00:13:55;;;;;;;11.68;5.35;;;17.70;99.90;;;;;;5082786;28;20542;-66
2021/07/09 00:16:23;;;;;;;8.13;5.20;;;17.70;99.90;;;;;;5084699;28;20101;-65
2021/07/09 00:18:51;;;;;;;10.90;5.75;;;17.60;99.90;;;;;;5082787;28;20665;-66
2021/07/09 00:21:18;;;;;;;9.07;5.35;;;17.50;99.90;;;;;;5085891;28;20055;-66
2021/07/09 00:23:46;;;;;;;9.50;5.60;;;17.40;99.90;;;;;;5085598;28;20332;-65
2021/07/09 00:26:14;;;;;;;11.50;6.25;;;17.40;99.90;;;;;;5080795;28;20044;-68
2021/07/09 00:28:41;;;;;;;10.32;6.53;;;17.40;99.90;;;;;;5082321;28;20079;-67
2021/07/09 00:31:08;;;;;;;15.13;8.27;;;17.30;99.90;;;;;;5083296;28;20043;-66
2021/07/09 00:33:35;;;;;;;14.65;8.00;;;17.40;99.90;;;;;;5084755;28;20079;-67
2021/07/09 00:36:04;;;;;;;13.50;8.10;;;17.40;99.90;;;;;;5083918;28;20585;-67
2021/07/09 00:38:31;;;;;;;18.98;7.38;;;17.30;99.90;;;;;;5082695;28;20127;-67
2021/07/09 00:40:58;;;;;;;16.00;8.68;;;17.40;99.90;;;;;;5082880;28;20140;-67
2021/07/09 00:43:25;;;;;;;12.57;7.88;;;17.30;99.90;;;;;;5082741;28;20072;-67
2021/07/09 00:45:52;;;;;;;16.38;8.57;;;17.20;99.90;;;;;;5082294;28;20101;-66
2021/07/09 00:48:19;;;;;;;16.20;8.70;;;17.20;99.90;;;;;;5086292;28;20564;-67
2021/07/09 00:50:47;;;;;;;16.40;10.20;;;17.20;99.90;;;;;;5083692;28;20087;-67
2021/07/09 00:53:15;;;;;;;18.75;9.65;;;17.10;99.90;;;;;;5080045;28;20076;-68
2021/07/09 00:55:42;;;;;;;16.73;10.38;;;17.10;99.90;;;;;;5082939;28;20469;-67
2021/07/09 00:58:09;;;;;;;17.35;10.02;;;17.10;99.90;;;;;;5081337;27;20083;-67
2021/07/09 01:00:36;;;;;;;15.30;10.48;;;17.00;99.90;;;;;;5081330;28;20052;-65
2021/07/09 01:03:04;;;;;;;18.95;10.52;;;17.00;99.90;;;;;;5080694;28;20451;-67
2021/07/09 01:05:32;;;;;;;23.60;13.52;;;16.90;99.90;;;;;;5080396;28;20065;-66
2021/07/09 01:07:59;;;;;;;23.15;13.75;;;17.00;99.90;;;;;;5081116;28;20543;-67
2021/07/09 01:10:28;;;;;;;26.02;13.15;;;16.90;99.90;;;;;;5083351;28;20491;-65
2021/07/09 01:12:55;;;;;;;23.45;13.23;;;16.90;99.90;;;;;;5082329;28;20083;-65
2021/07/09 01:15:22;;;;;;;23.85;13.13;;;16.90;99.90;;;;;;5083124;28;20054;-65
2021/07/09 01:17:50;;;;;;;21.90;13.75;;;16.80;99.90;;;;;;5081163;28;20113;-65
2021/07/09 01:20:19;;;;;;;26.27;13.57;;;16.80;99.90;;;;;;5082161;28;20048;-65
2021/07/09 01:22:48;;;;;;;25.73;13.98;;;16.80;99.90;;;;;;5083085;28;20100;-67
2021/07/09 01:25:18;;;;;;;36.72;15.43;;;16.80;99.90;;;;;;5083247;28;20577;-65
2021/07/09 01:27:48;;;;;;;24.65;14.93;;;16.70;99.90;;;;;;5083445;28;20040;-65
2021/07/09 01:30:18;;;;;;;35.38;16.48;;;16.70;99.90;;;;;;5081941;28;20044;-66
2021/07/09 01:32:45;;;;;;;40.55;15.68;;;16.70;99.90;;;;;;5080581;28;20052;-66
2021/07/09 01:35:13;;;;;;;33.72;17.42;;;16.70;99.90;;;;;;5082712;28;21264;-64
2021/07/09 01:37:41;;;;;;;42.20;18.08;;;16.60;99.90;;;;;;5086281;28;20059;-64
2021/07/09 01:40:10;;;;;;;22.00;14.27;;;16.60;99.90;;;;;;5082090;28;20132;-66
2021/07/09 01:42:39;;;;;;;20.98;14.45;;;16.60;99.90;;;;;;5082915;28;20412;-64
2021/07/09 01:45:08;;;;;;;30.85;15.25;;;16.50;99.90;;;;;;5081631;28;20044;-64
2021/07/09 01:47:35;;;;;;;24.83;15.93;;;16.60;99.90;;;;;;5082269;28;20142;-65
2021/07/09 01:50:05;;;;;;;23.60;14.15;;;16.50;99.90;;;;;;5083430;28;20039;-66
2021/07/09 01:52:32;;;;;;;28.02;16.73;;;16.50;99.90;;;;;;5081805;28;20057;-64
2021/07/09 01:55:00;;;;;;;25.52;14.88;;;16.50;99.90;;;;;;5081468;28;20052;-64
2021/07/09 01:57:27;;;;;;;34.53;17.77;;;16.50;99.90;;;;;;5082784;28;20048;-64
2021/07/09 01:59:58;;;;;;;29.55;17.58;;;16.40;99.90;;;;;;5082594;28;20195;-66
2021/07/09 02:02:25;;;;;;;30.00;17.90;;;16.40;99.90;;;;;;5084268;28;20134;-64
2021/07/09 02:04:55;;;;;;;35.00;19.23;;;16.50;99.90;;;;;;5083047;28;20044;-63
2021/07/09 02:07:24;;;;;;;29.98;16.80;;;16.50;99.90;;;;;;5081913;28;20096;-66
2021/07/09 02:09:52;;;;;;;26.38;17.13;;;16.50;99.90;;;;;;5081076;28;20544;-64
2021/07/09 02:12:22;;;;;;;33.00;18.70;;;16.50;99.90;;;;;;5081181;28;20044;-64
2021/07/09 02:14:49;;;;;;;34.97;18.08;;;16.50;99.90;;;;;;5082803;28;20059;-63
2021/07/09 02:17:19;;;;;;;24.02;15.48;;;16.50;99.90;;;;;;5079205;28;20141;-65
2021/07/09 02:19:48;;;;;;;29.25;16.58;;;16.50;99.90;;;;;;5080792;28;20140;-64
2021/07/09 02:22:17;;;;;;;22.83;15.10;;;16.50;99.90;;;;;;5081176;27;20116;-63
2021/07/09 02:24:45;;;;;;;27.75;16.15;;;16.50;99.90;;;;;;5081552;28;20135;-64
2021/07/09 02:27:13;;;;;;;23.63;15.60;;;16.50;99.90;;;;;;5081154;28;20414;-62
2021/07/09 02:29:41;;;;;;;25.92;15.32;;;16.50;99.90;;;;;;5080329;28;20147;-64
2021/07/09 02:32:10;;;;;;;31.92;16.63;;;16.50;99.90;;;;;;5077665;28;20110;-65
2021/07/09 02:34:39;;;;;;;63.10;20.27;;;16.60;99.90;;;;;;5080360;28;20048;-66
2021/07/09 02:37:08;;;;;;;43.28;18.60;;;16.50;99.90;;;;;;5080337;28;20562;-63
2021/07/09 02:39:35;;;;;;;30.05;17.10;;;16.50;99.90;;;;;;5080886;28;20550;-62
2021/07/09 02:42:02;;;;;;;30.98;17.98;;;16.50;99.90;;;;;;5082833;28;20461;-65
2021/07/09 02:44:29;;;;;;;32.65;18.55;;;16.50;99.90;;;;;;5080941;28;20135;-63
2021/07/09 02:46:56;;;;;;;29.25;17.67;;;16.50;99.90;;;;;;5078995;28;20475;-67
2021/07/09 02:49:23;;;;;;;29.45;18.10;;;16.50;99.90;;;;;;5082080;28;20056;-66
2021/07/09 02:51:52;;;;;;;34.78;18.08;;;16.50;99.90;;;;;;5079714;28;20152;-64
2021/07/09 02:54:19;;;;;;;33.22;18.98;;;16.40;99.90;;;;;;5081092;28;20102;-63
2021/07/09 02:56:46;;;;;;;33.53;19.38;;;16.50;99.90;;;;;;5082999;28;20091;-64
2021/07/09 02:59:13;;;;;;;33.40;19.98;;;16.50;99.90;;;;;;5080650;28;20480;-64
2021/07/09 03:01:41;;;;;;;33.90;18.88;;;16.40;99.90;;;;;;5081289;28;20496;-63
2021/07/09 03:04:09;;;;;;;32.75;18.05;;;16.40;99.90;;;;;;5083154;28;20156;-66
2021/07/09 03:06:36;;;;;;;41.28;19.25;;;16.30;99.90;;;;;;5082750;28;20138;-63
2021/07/09 03:09:06;;;;;;;51.30;21.02;;;16.30;99.90;;;;;;5082190;28;20133;-67
2021/07/09 03:11:33;;;;;;;53.20;20.95;;;16.40;99.90;;;;;;5082344;28;20472;-66
2021/07/09 03:14:00;;;;;;;49.38;21.42;;;16.40;99.90;;;;;;5082082;28;20087;-65
2021/07/09 03:16:27;;;;;;;44.15;21.35;;;16.40;99.90;;;;;;5081664;28;20380;-66
2021/07/09 03:18:54;;;;;;;49.58;22.20;;;16.40;99.90;;;;;;5083310;28;20048;-64
2021/07/09 03:21:22;;;;;;;48.05;21.50;;;16.30;99.90;;;;;;5081852;28;20187;-64
2021/07/09 03:23:49;;;;;;;46.67;23.00;;;16.30;99.90;;;;;;5081939;28;20091;-63
2021/07/09 03:26:17;;;;;;;40.85;22.17;;;16.30;99.90;;;;;;5082552;28;20060;-63
2021/07/09 03:28:44;;;;;;;48.83;23.27;;;16.40;99.90;;;;;;5082654;28;20121;-63
2021/07/09 03:31:11;;;;;;;37.75;19.98;;;16.30;99.90;;;;;;5083265;28;20156;-64
2021/07/09 03:33:38;;;;;;;40.25;21.52;;;16.30;99.90;;;;;;5082333;28;20056;-67
2021/07/09 03:36:06;;;;;;;39.53;21.73;;;16.30;99.90;;;;;;5083770;28;20079;-66
2021/07/09 03:38:33;;;;;;;39.30;21.85;;;16.20;99.90;;;;;;5083028;28;20600;-66
2021/07/09 03:41:00;;;;;;;48.22;23.60;;;16.30;99.90;;;;;;5089729;28;20134;-63
2021/07/09 03:43:29;;;;;;;58.30;26.52;;;16.30;99.90;;;;;;5085897;28;20138;-67
2021/07/09 03:45:56;;;;;;;51.10;25.40;;;16.30;99.90;;;;;;5083687;28;20531;-65
2021/07/09 03:48:23;;;;;;;51.90;26.50;;;16.20;99.90;;;;;;5084618;28;20542;-63
2021/07/09 03:50:50;;;;;;;55.20;25.77;;;16.20;99.90;;;;;;5087060;28;20519;-66
2021/07/09 03:53:17;;;;;;;47.00;25.90;;;16.20;99.90;;;;;;5085302;28;20055;-63
2021/07/09 03:55:44;;;;;;;61.28;28.58;;;16.20;99.90;;;;;;5084780;28;20071;-66
2021/07/09 03:58:11;;;;;;;61.58;29.23;;;16.20;99.90;;;;;;5087383;28;20112;-64
2021/07/09 04:00:39;;;;;;;50.28;27.35;;;16.30;99.90;;;;;;5083953;28;20087;-62
2021/07/09 04:03:06;;;;;;;50.88;27.48;;;16.30;99.90;;;;;;5087690;28;20486;-63
2021/07/09 04:05:33;;;;;;;58.47;28.52;;;16.30;99.90;;;;;;5083935;28;20127;-65
2021/07/09 04:08:00;;;;;;;50.20;26.73;;;16.30;99.90;;;;;;5083997;28;20112;-63
2021/07/09 04:10:27;;;;;;;61.33;29.92;;;16.30;99.90;;;;;;5084153;28;20467;-63
2021/07/09 04:12:54;;;;;;;49.80;27.25;;;16.20;99.90;;;;;;5087258;28;20056;-66
2021/07/09 04:15:21;;;;;;;49.58;27.85;;;16.20;99.90;;;;;;5082128;28;20136;-63
2021/07/09 04:17:50;;;;;;;55.42;28.65;;;16.20;99.90;;;;;;5083988;28;20079;-63
2021/07/09 04:20:17;;;;;;;53.72;28.33;;;16.30;99.90;;;;;;5084582;28;20052;-62
2021/07/09 04:22:44;;;;;;;54.60;29.02;;;16.20;99.90;;;;;;5084217;28;20159;-64
2021/07/09 04:25:13;;;;;;;45.75;27.48;;;16.20;99.90;;;;;;5085151;28;20501;-63
2021/07/09 04:27:41;;;;;;;49.28;27.73;;;16.20;99.90;;;;;;5081356;28;20091;-63
2021/07/09 04:30:10;;;;;;;52.40;28.38;;;16.30;99.90;;;;;;5083930;28;20262;-66
2021/07/09 04:32:38;;;;;;;49.00;27.83;;;16.20;99.90;;;;;;5084877;28;20056;-64
2021/07/09 04:35:08;;;;;;;48.80;26.77;;;16.30;99.90;;;;;;5086429;28;20071;-66
2021/07/09 04:37:35;;;;;;;44.78;25.70;;;16.20;99.90;;;;;;5083418;28;20144;-66
2021/07/09 04:40:02;;;;;;;55.72;28.85;;;16.20;99.90;;;;;;5083927;28;20060;-63
2021/07/09 04:42:29;;;;;;;50.83;28.70;;;16.10;99.90;;;;;;5081011;28;20075;-64
2021/07/09 04:44:56;;;;;;;50.15;28.20;;;16.10;99.90;;;;;;5083370;28;20568;-63
2021/07/09 04:47:24;;;;;;;47.33;27.48;;;16.10;99.90;;;;;;5082118;28;20574;-65
2021/07/09 04:49:51;;;;;;;48.90;26.50;;;16.20;99.90;;;;;;5083770;28;20054;-65
2021/07/09 04:52:19;;;;;;;41.53;23.92;;;16.10;99.90;;;;;;5082943;28;20135;-63
2021/07/09 04:54:46;;;;;;;41.70;23.52;;;16.00;99.90;;;;;;5081693;28;20143;-66
2021/07/09 04:57:13;;;;;;;43.50;24.33;;;16.10;99.90;;;;;;5085859;28;20055;-62
2021/07/09 04:59:40;;;;;;;43.60;24.98;;;16.10;99.90;;;;;;5083762;28;20098;-61
2021/07/09 05:02:07;;;;;;;40.03;22.98;;;16.00;99.90;;;;;;5083756;28;20079;-61
2021/07/09 05:04:34;;;;;;;32.22;19.67;;;16.00;99.90;;;;;;5084464;28;20508;-61
2021/07/09 05:07:01;;;;;;;34.63;21.50;;;15.90;99.90;;;;;;5082582;28;20087;-61
2021/07/09 05:09:29;;;;;;;38.20;22.33;;;15.90;99.90;;;;;;5083328;28;20098;-61
2021/07/09 05:11:56;;;;;;;35.63;20.42;;;15.90;99.90;;;;;;5086769;28;20134;-64
2021/07/09 05:14:23;;;;;;;38.60;21.65;;;15.90;99.90;;;;;;5084547;28;20308;-62
2021/07/09 05:16:50;;;;;;;32.75;19.60;;;15.90;99.90;;;;;;5083383;28;20047;-61
2021/07/09 05:19:17;;;;;;;31.98;19.65;;;15.90;99.90;;;;;;5085647;28;20087;-60
2021/07/09 05:21:44;;;;;;;30.42;18.95;;;15.90;99.90;;;;;;5081840;28;20083;-61
2021/07/09 05:24:12;;;;;;;30.40;18.92;;;15.90;99.90;;;;;;5082331;28;20134;-62
2021/07/09 05:26:42;;;;;;;27.65;17.23;;;15.90;99.90;;;;;;5084993;28;20047;-62
2021/07/09 05:29:10;;;;;;;30.25;18.00;;;15.90;99.90;;;;;;5082007;28;20051;-62
2021/07/09 05:31:39;;;;;;;26.75;16.77;;;15.90;99.90;;;;;;5084362;28;20095;-61
2021/07/09 05:34:06;;;;;;;25.48;15.80;;;15.90;99.90;;;;;;5085606;28;20424;-62
2021/07/09 05:36:33;;;;;;;20.67;13.75;;;15.80;99.90;;;;;;5082688;28;20470;-62
2021/07/09 05:39:00;;;;;;;22.80;14.75;;;15.80;99.90;;;;;;5081709;28;20052;-61
2021/07/09 05:41:27;;;;;;;20.63;14.07;;;15.80;99.90;;;;;;5084597;28;20109;-62
2021/07/09 05:43:55;;;;;;;18.73;12.55;;;15.80;99.90;;;;;;5084287;28;20482;-61
2021/07/09 05:46:22;;;;;;;20.55;12.50;;;15.80;99.90;;;;;;5082940;28;20495;-64
2021/07/09 05:48:49;;;;;;;18.52;12.57;;;15.70;99.90;;;;;;5081074;28;20135;-64
2021/07/09 05:51:19;;;;;;;16.38;11.88;;;15.70;99.90;;;;;;5085260;28;20139;-61
2021/07/09 05:53:46;;;;;;;18.83;11.20;;;15.70;99.90;;;;;;5081894;28;20539;-61
2021/07/09 05:56:13;;;;;;;15.63;10.45;;;15.70;99.90;;;;;;5083614;28;20052;-61
2021/07/09 05:58:40;;;;;;;15.10;10.13;;;15.60;99.90;;;;;;5085150;28;20161;-62
2021/07/09 06:01:08;;;;;;;17.45;10.63;;;15.60;99.90;;;;;;5083031;28;20155;-64
2021/07/09 06:03:35;;;;;;;18.92;11.15;;;15.70;99.90;;;;;;5083100;28;20130;-64
2021/07/09 06:06:02;;;;;;;19.58;11.35;;;15.60;99.90;;;;;;5084027;28;20451;-65
2021/07/09 06:08:29;;;;;;;19.17;11.63;;;15.60;99.90;;;;;;5083108;28;20048;-63
2021/07/09 06:10:56;;;;;;;18.77;11.00;;;15.60;99.90;;;;;;5084475;28;20083;-62
2021/07/09 06:13:23;;;;;;;16.35;11.88;;;15.60;99.90;;;;;;5083669;28;20109;-63
2021/07/09 06:15:50;;;;;;;19.35;12.25;;;15.60;99.90;;;;;;5082955;28;20052;-64
2021/07/09 06:18:19;;;;;;;23.23;12.23;;;15.60;99.90;;;;;;5082078;28;20356;-64
2021/07/09 06:20:46;;;;;;;20.77;12.98;;;15.70;99.90;;;;;;5083510;28;20501;-63
2021/07/09 06:23:13;;;;;;;22.88;14.13;;;15.70;99.90;;;;;;5084454;28;20512;-62
2021/07/09 06:25:40;;;;;;;32.58;14.73;;;15.70;99.90;;;;;;5083192;28;20083;-64
2021/07/09 06:28:07;;;;;;;27.02;15.40;;;15.70;99.90;;;;;;5082756;28;20134;-61
2021/07/09 06:30:34;;;;;;;20.63;13.13;;;15.80;99.90;;;;;;5082977;28;20450;-61
2021/07/09 06:33:01;;;;;;;21.75;13.77;;;15.80;99.90;;;;;;5082654;28;20171;-61
2021/07/09 06:35:30;;;;;;;21.70;13.77;;;15.80;99.90;;;;;;5082887;28;20349;-61
2021/07/09 06:37:57;;;;;;;23.90;14.57;;;15.80;99.90;;;;;;5081668;28;20335;-61
2021/07/09 06:40:25;;;;;;;26.13;13.75;;;15.80;99.90;;;;;;5082995;28;20507;-61
2021/07/09 06:42:52;;;;;;;23.70;13.93;;;15.80;99.90;;;;;;5085478;28;20579;-61
2021/07/09 06:45:20;;;;;;;26.88;13.77;;;15.90;99.90;;;;;;5082766;28;20091;-60
2021/07/09 06:47:47;;;;;;;21.10;11.50;;;16.00;99.90;;;;;;5081810;28;20135;-62
2021/07/09 06:50:14;;;;;;;23.50;11.38;;;16.00;99.90;;;;;;5081092;28;20131;-62
2021/07/09 06:52:44;;;;;;;25.52;10.80;;;15.90;99.90;;;;;;5083005;28;20461;-62
2021/07/09 06:55:12;;;;;;;21.55;10.25;;;15.80;99.90;;;;;;5081387;28;20052;-63
2021/07/09 06:57:39;;;;;;;21.70;10.27;;;15.80;99.90;;;;;;5079744;28;20101;-63
2021/07/09 07:00:07;;;;;;;22.35;9.30;;;15.80;99.90;;;;;;5081697;28;20131;-63
2021/07/09 07:02:35;;;;;;;17.88;9.13;;;15.70;99.90;;;;;;5081473;28;20051;-64
2021/07/09 07:05:02;;;;;;;21.17;8.75;;;15.60;99.90;;;;;;5082607;28;20052;-63
2021/07/09 07:07:29;;;;;;;19.60;9.85;;;15.60;99.90;;;;;;5083601;28;20051;-63
2021/07/09 07:09:57;;;;;;;19.63;8.45;;;15.70;99.90;;;;;;5080851;28;20090;-62
2021/07/09 07:12:26;;;;;;;17.38;8.70;;;15.70;99.90;;;;;;5081708;28;20112;-63
2021/07/09 07:14:53;;;;;;;25.10;8.60;;;15.70;99.90;;;;;;5082557;28;20055;-64
2021/07/09 07:17:21;;;;;;;16.45;8.77;;;15.60;99.90;;;;;;5082981;28;20048;-63
2021/07/09 07:19:48;;;;;;;17.02;8.40;;;15.60;99.90;;;;;;5084259;28;20060;-62
2021/07/09 07:22:15;;;;;;;21.25;10.15;;;15.60;99.90;;;;;;5081522;28;20052;-63
2021/07/09 07:24:42;;;;;;;18.98;9.93;;;15.70;99.90;;;;;;5083423;28;20412;-63
2021/07/09 07:27:10;;;;;;;19.98;10.23;;;15.70;99.90;;;;;;5083261;28;20098;-63
2021/07/09 07:29:37;;;;;;;17.92;10.20;;;15.70;99.90;;;;;;5080980;28;20063;-63
2021/07/09 07:32:05;;;;;;;18.33;9.80;;;15.70;99.90;;;;;;5082022;28;20059;-63
2021/07/09 07:34:32;;;;;;;15.77;8.38;;;15.70;99.90;;;;;;5085958;28;20084;-63
2021/07/09 07:36:59;;;;;;;18.85;10.65;;;15.70;99.90;;;;;;5081754;28;20136;-60
2021/07/09 07:39:26;;;;;;;19.60;11.73;;;15.70;99.90;;;;;;5081470;28;20060;-62
2021/07/09 07:41:53;;;;;;;19.17;11.45;;;15.70;99.90;;;;;;5082896;28;20052;-62
2021/07/09 07:44:21;;;;;;;18.48;10.68;;;15.70;99.90;;;;;;5081447;28;20423;-63
2021/07/09 07:46:49;;;;;;;24.38;12.02;;;15.70;99.90;;;;;;5081664;28;20087;-61
2021/07/09 07:49:16;;;;;;;22.23;13.23;;;15.70;99.90;;;;;;5077851;28;20044;-63
2021/07/09 07:51:43;;;;;;;24.38;12.80;;;15.70;99.90;;;;;;5076200;28;20105;-61
2021/07/09 07:54:10;;;;;;;21.85;13.27;;;15.70;99.90;;;;;;5078277;28;20098;-62
2021/07/09 07:56:37;;;;;;;21.40;13.60;;;15.70;99.90;;;;;;5078570;28;20478;-62
2021/07/09 07:59:04;;;;;;;21.70;12.27;;;15.80;99.90;;;;;;5076872;28;20217;-60
2021/07/09 08:01:33;;;;;;;17.90;11.45;;;15.80;99.90;;;;;;5078182;28;20098;-64
2021/07/09 08:04:00;;;;;;;17.42;11.38;;;15.70;99.90;;;;;;5077961;28;20055;-61
2021/07/09 08:06:27;;;;;;;14.45;9.63;;;15.70;99.90;;;;;;5080677;28;21018;-60
2021/07/09 08:08:54;;;;;;;13.75;9.55;;;15.70;99.90;;;;;;5077582;28;20113;-61
2021/07/09 08:11:21;;;;;;;16.65;9.90;;;15.70;99.90;;;;;;5079516;28;20048;-62
2021/07/09 08:13:48;;;;;;;15.23;8.05;;;15.80;99.90;;;;;;5078376;28;20422;-61
2021/07/09 08:16:16;;;;;;;12.02;8.23;;;15.80;99.90;;;;;;5079296;28;20446;-61
2021/07/09 08:18:45;;;;;;;10.90;7.18;;;15.80;99.90;;;;;;5078013;28;20075;-61
2021/07/09 08:21:12;;;;;;;9.68;6.80;;;15.80;99.90;;;;;;5078127;28;20047;-60
2021/07/09 08:23:40;;;;;;;9.38;5.82;;;15.90;99.90;;;;;;5079554;28;20465;-64
2021/07/09 08:26:07;;;;;;;10.07;5.80;;;15.80;99.90;;;;;;5083315;28;20056;-64
2021/07/09 08:28:35;;;;;;;8.13;4.63;;;15.80;99.90;;;;;;5083002;28;20642;-68
2021/07/09 08:31:02;;;;;;;8.48;4.65;;;15.90;99.90;;;;;;5082464;28;20062;-64
2021/07/09 08:33:29;;;;;;;6.57;3.60;;;15.90;99.90;;;;;;5082820;28;20051;-67
2021/07/09 08:35:57;;;;;;;7.40;4.20;;;15.90;99.90;;;;;;5081438;28;20454;-63
2021/07/09 08:38:24;;;;;;;5.63;3.20;;;15.90;99.90;;;;;;5083293;28;20052;-64
2021/07/09 08:40:52;;;;;;;5.78;3.65;;;15.90;99.90;;;;;;5082599;28;20416;-66
2021/07/09 08:43:19;;;;;;;6.18;3.88;;;15.90;99.90;;;;;;5081482;28;20077;-65
2021/07/09 08:45:46;;;;;;;6.43;3.70;;;16.00;99.90;;;;;;5082712;28;20096;-67
2021/07/09 08:48:15;;;;;;;8.57;3.72;;;16.00;99.90;;;;;;5081164;28;20602;-63
2021/07/09 08:50:42;;;;;;;5.22;3.30;;;16.10;99.90;;;;;;5081663;28;20139;-62
2021/07/09 08:53:10;;;;;;;4.32;2.35;;;16.10;99.90;;;;;;5081023;28;20056;-61
2021/07/09 08:55:38;;;;;;;5.25;2.90;;;16.10;99.90;;;;;;5084699;28;20060;-63
2021/07/09 08:58:06;;;;;;;5.35;2.78;;;16.20;99.90;;;;;;5079224;28;20109;-62
2021/07/09 09:00:44;;;;;;;4.88;3.17;;;16.20;99.90;;;;;;5082250;28;20134;-62
2021/07/09 09:03:16;;;;;;;6.72;3.22;;;16.30;99.90;;;;;;5080810;28;20063;-62
2021/07/09 09:05:44;;;;;;;6.00;3.90;;;16.30;99.90;;;;;;5082863;28;20420;-63
2021/07/09 09:08:14;;;;;;;6.05;3.60;;;16.40;99.90;;;;;;5080630;28;20101;-63
2021/07/09 09:10:42;;;;;;;5.68;3.50;;;16.40;99.90;;;;;;5080764;28;20048;-63
2021/07/09 09:13:11;;;;;;;5.90;3.50;;;16.40;99.90;;;;;;5080609;28;20056;-62
2021/07/09 09:15:39;;;;;;;6.30;3.85;;;16.40;99.90;;;;;;5080577;28;20074;-65
2021/07/09 09:18:25;;;;;;;5.53;3.83;;;16.40;99.90;;;;;;5079655;28;20052;-63
2021/07/09 09:20:58;;;;;;;5.22;3.35;;;16.40;99.90;;;;;;5081274;28;20058;-63
2021/07/09 09:23:27;;;;;;;5.75;3.17;;;16.40;99.90;;;;;;5081547;28;20048;-63
2021/07/09 09:25:54;;;;;;;5.45;3.10;;;16.50;99.90;;;;;;5080930;28;20523;-63
2021/07/09 09:28:22;;;;;;;4.95;3.53;;;16.50;99.90;;;;;;5079448;28;20055;-62
2021/07/09 09:30:54;;;;;;;5.63;3.63;;;16.60;99.90;;;;;;5079513;28;20458;-63
2021/07/09 09:33:22;;;;;;;5.35;3.15;;;16.70;99.90;;;;;;5081800;28;20585;-63
2021/07/09 09:35:54;;;;;;;6.20;3.88;;;16.70;99.90;;;;;;5077088;28;20101;-62
2021/07/09 09:38:29;;;;;;;6.35;3.80;;;16.80;99.90;;;;;;5079637;28;20359;-63
2021/07/09 09:40:58;;;;;;;7.47;4.82;;;16.90;99.90;;;;;;5079124;28;20097;-63
2021/07/09 09:43:28;;;;;;;6.05;4.00;;;17.00;99.90;;;;;;5081149;28;20719;-63
2021/07/09 09:46:00;;;;;;;7.45;4.40;;;17.00;99.90;;;;;;5081547;28;20044;-63
2021/07/09 09:48:41;;;;;;;6.28;4.18;;;17.10;99.90;;;;;;5079505;28;20557;-64
2021/07/09 09:51:33;;;;;;;8.70;4.32;;;17.20;99.90;;;;;;5079650;28;20113;-63
2021/07/09 09:54:03;;;;;;;5.40;3.40;;;17.20;99.90;;;;;;5079994;28;20139;-63
2021/07/09 09:56:35;;;;;;;5.50;3.13;;;17.20;99.90;;;;;;5080382;28;20048;-63
2021/07/09 09:59:16;;;;;;;5.47;3.50;;;17.10;99.90;;;;;;5078464;28;20526;-62
2021/07/09 10:01:52;;;;;;;7.95;4.15;;;17.20;99.90;;;;;;5077310;28;20469;-62
2021/07/09 10:04:19;;;;;;;8.32;4.63;;;17.20;99.90;;;;;;5078550;28;20059;-69
2021/07/09 10:06:47;;;;;;;7.80;4.28;;;17.30;99.90;;;;;;5078639;28;20521;-64
2021/07/09 10:09:17;;;;;;;6.25;4.43;;;17.30;99.90;;;;;;5079082;28;20566;-64
2021/07/09 10:11:45;;;;;;;6.85;4.03;;;17.40;99.90;;;;;;5076573;28;20404;-65
2021/07/09 10:14:13;;;;;;;7.95;4.10;;;17.50;99.90;;;;;;5075030;28;20044;-65
2021/07/09 10:16:42;;;;;;;7.53;3.85;;;17.60;99.90;;;;;;5074526;28;20452;-65
2021/07/09 10:19:10;;;;;;;6.03;3.55;;;17.80;99.90;;;;;;5077393;28;20432;-66
2021/07/09 10:21:38;;;;;;;6.85;4.18;;;17.90;99.90;;;;;;5076084;28;20052;-65
2021/07/09 10:24:06;;;;;;;8.57;3.58;;;18.10;99.90;;;;;;5074400;28;20047;-65
2021/07/09 10:26:41;;;;;;;5.20;3.22;;;18.30;99.90;;;;;;5074304;28;20899;-67
2021/07/09 10:29:13;;;;;;;6.72;4.05;;;18.10;99.90;;;;;;5076575;28;20055;-66
2021/07/09 10:31:42;;;;;;;5.60;3.10;;;18.10;99.90;;;;;;5077945;28;20051;-65
2021/07/09 10:34:30;;;;;;;5.57;3.25;;;18.00;99.90;;;;;;5077266;28;20047;-65
2021/07/09 10:37:01;;;;;;;5.03;2.95;;;18.20;99.90;;;;;;5075405;28;20101;-65
2021/07/09 10:39:36;;;;;;;5.00;3.15;;;18.40;99.90;;;;;;5073418;28;20061;-65
2021/07/09 10:42:30;;;;;;;4.78;3.10;;;18.40;99.90;;;;;;5074451;28;20573;-66
2021/07/09 10:45:02;;;;;;;6.88;3.60;;;18.30;99.90;;;;;;5059162;28;20184;-66
2021/07/09 10:47:54;;;;;;;6.35;2.90;;;18.20;99.90;;;;;;5075907;28;20047;-66
2021/07/09 10:50:34;;;;;;;6.47;3.38;;;18.00;99.90;;;;;;5059855;28;20546;-65
2021/07/09 10:53:03;;;;;;;4.55;2.50;;;18.00;99.90;;;;;;5074451;28;20138;-65
2021/07/09 10:55:49;;;;;;;5.45;2.95;;;18.00;99.90;;;;;;5077191;28;20074;-66
2021/07/09 10:58:24;;;;;;;5.43;2.53;;;17.80;99.90;;;;;;5073728;28;20116;-66
2021/07/09 11:00:55;;;;;;;8.40;2.70;;;17.80;99.90;;;;;;5077747;28;20047;-66
2021/07/09 11:03:30;;;;;;;4.20;2.72;;;17.70;99.90;;;;;;5076449;28;20466;-65
2021/07/09 11:05:59;;;;;;;4.90;2.65;;;17.80;99.90;;;;;;5076442;28;20100;-67
2021/07/09 11:08:41;;;;;;;4.53;2.45;;;17.70;99.90;;;;;;5075839;28;20048;-65
2021/07/09 11:11:11;;;;;;;5.90;2.88;;;18.10;99.90;;;;;;5075018;28;20128;-66
2021/07/09 11:13:49;;;;;;;4.25;2.20;;;18.20;99.90;;;;;;5074283;28;20142;-66
2021/07/09 11:16:27;;;;;;;5.15;2.58;;;18.40;99.90;;;;;;5075837;28;20071;-66
2021/07/09 11:18:56;;;;;;;4.78;2.40;;;18.70;99.90;;;;;;5075636;28;20063;-66
2021/07/09 11:22:01;;;;;;;2.70;1.75;;;19.10;99.90;;;;;;5073786;28;20051;-66
2021/07/09 11:24:29;;;;;;;7.22;1.92;;;19.60;99.90;;;;;;5073292;28;20067;-66
2021/07/09 11:26:58;;;;;;;3.22;1.90;;;19.60;99.90;;;;;;5074877;28;20047;-67
2021/07/09 11:29:44;;;;;;;3.42;2.15;;;19.30;99.90;;;;;;5076575;28;20056;-66
2021/07/09 11:32:13;;;;;;;3.10;1.65;;;19.20;99.90;;;;;;5074943;28;20477;-66
2021/07/09 11:34:43;;;;;;;3.30;1.80;;;19.00;99.90;;;;;;5072025;28;20466;-66
2021/07/09 11:37:13;;;;;;;2.78;1.65;;;19.00;99.90;;;;;;5073094;28;20070;-66
2021/07/09 11:39:43;;;;;;;3.50;1.73;;;19.30;99.90;;;;;;5071850;28;20109;-67
2021/07/09 11:42:12;;;;;;;2.08;1.50;;;19.50;99.90;;;;;;5074428;28;20077;-66
2021/07/09 11:44:42;;;;;;;3.67;2.00;;;19.40;99.90;;;;;;5074062;28;20074;-67
2021/07/09 11:47:13;;;;;;;3.53;1.85;;;19.60;99.90;;;;;;5073176;28;20056;-67
2021/07/09 11:49:42;;;;;;;3.15;1.40;;;19.40;99.90;;;;;;5071668;28;20048;-68
2021/07/09 11:52:11;;;;;;;4.03;2.03;;;19.20;99.90;;;;;;5072556;28;20100;-67
2021/07/09 11:54:40;;;;;;;3.50;1.65;;;19.30;99.90;;;;;;5075414;28;20048;-67
2021/07/09 11:57:10;;;;;;;3.17;1.50;;;19.30;99.90;;;;;;5073248;28;20045;-67
2021/07/09 11:59:38;;;;;;;2.92;1.40;;;19.20;99.90;;;;;;5077649;28;20136;-68
2021/07/09 12:02:12;;;;;;;2.88;1.38;;;19.20;99.90;;;;;;5079625;28;20048;-67
2021/07/09 12:04:42;;;;;;;2.78;1.42;;;18.80;99.90;;;;;;5078341;28;20056;-68
2021/07/09 12:07:33;;;;;;;2.10;1.40;;;18.80;99.90;;;;;;5077025;28;20056;-70
2021/07/09 12:10:09;;;;;;;1.98;1.38;;;18.70;99.90;;;;;;5059843;28;20051;-67
2021/07/09 12:12:39;;;;;;;3.58;1.50;;;18.80;99.90;;;;;;5083491;28;20048;-68
2021/07/09 12:15:09;;;;;;;2.53;1.30;;;18.80;99.90;;;;;;5084827;28;20065;-68
2021/07/09 12:17:41;;;;;;;2.85;1.27;;;18.80;99.90;;;;;;5082031;28;20416;-67
2021/07/09 12:20:13;;;;;;;2.50;1.42;;;18.90;99.90;;;;;;5084662;28;20047;-67
2021/07/09 12:22:43;;;;;;;4.57;1.63;;;18.80;99.90;;;;;;5084099;28;20516;-67
2021/07/09 12:25:14;;;;;;;2.95;1.50;;;18.80;99.90;;;;;;5082317;28;20695;-69
2021/07/09 12:27:42;;;;;;;2.35;1.10;;;18.70;99.90;;;;;;5086822;28;20409;-67
2021/07/09 12:30:13;;;;;;;2.47;1.40;;;18.70;99.90;;;;;;5086166;28;20079;-67
2021/07/09 12:32:54;;;;;;;3.75;1.48;;;18.50;99.90;;;;;;5084569;28;20114;-66
2021/07/09 12:35:23;;;;;;;3.00;1.58;;;18.50;99.90;;;;;;5082024;28;20048;-66
2021/07/09 12:38:01;;;;;;;5.15;1.52;;;18.60;99.90;;;;;;5084295;28;20055;-67
2021/07/09 12:40:30;;;;;;;1.85;1.10;;;18.80;99.90;;;;;;5087448;28;20044;-67
2021/07/09 12:43:13;;;;;;;2.30;1.20;;;18.90;99.90;;;;;;5083041;28;20043;-69
2021/07/09 12:45:41;;;;;;;2.38;1.65;;;18.70;99.90;;;;;;5082789;28;20055;-67